createdAt,value
2022-07-25T00:00:56.217Z,88.82
2022-07-25T00:03:26.879Z,89.50
2022-07-25T00:05:58.683Z,89.82
2022-07-25T00:08:28.700Z,89.91
2022-07-25T00:10:58.811Z,90.47
2022-07-25T00:13:30.850Z,90.54
2022-07-25T00:16:01.124Z,90.23
2022-07-25T00:18:30.756Z,90.42
2022-07-25T00:21:00.949Z,90.89
2022-07-25T00:23:29.424Z,91.22
2022-07-25T00:25:59.413Z,91.43
2022-07-25T00:28:30.203Z,92.08
2022-07-25T00:30:59.383Z,92.10
2022-07-25T00:33:28.969Z,92.79
2022-07-25T00:35:58.069Z,92.87
2022-07-25T00:38:27.518Z,93.08
2022-07-25T00:40:57.098Z,93.41
2022-07-25T00:43:26.665Z,93.56
2022-07-25T00:45:58.776Z,94.65
2022-07-25T00:48:30.557Z,94.95
2022-07-25T00:51:00.373Z,94.82
2022-07-25T00:53:30.472Z,94.70
2022-07-25T00:56:00.444Z,94.73
2022-07-25T00:58:29.978Z,94.90
2022-07-25T01:01:02.710Z,95.22
2022-07-25T01:03:32.692Z,95.55
2022-07-25T01:06:01.913Z,95.91
2022-07-25T01:08:32.445Z,95.44
2022-07-25T01:11:03.039Z,95.82
2022-07-25T01:13:35.698Z,95.24
2022-07-25T01:16:08.084Z,95.66
2022-07-25T01:18:38.427Z,96.15
2022-07-25T01:21:10.402Z,96.32
2022-07-25T01:23:41.106Z,97.43
2022-07-25T01:26:11.373Z,98.02
2022-07-25T01:28:41.484Z,98.82
2022-07-25T01:31:12.172Z,97.47
2022-07-25T01:33:41.815Z,98.21
2022-07-25T01:36:13.616Z,98.68
2022-07-25T01:38:43.056Z,98.97
2022-07-25T01:41:12.686Z,98.64
2022-07-25T01:43:52.875Z,98.63
2022-07-25T01:46:23.578Z,98.76
2022-07-25T01:48:53.627Z,98.90
2022-07-25T01:51:24.032Z,98.92
2022-07-25T01:53:56.062Z,99.47
2022-07-25T01:56:26.725Z,100.00
2022-07-25T01:58:59.229Z,100.00
2022-07-25T02:01:29.970Z,100.00
2022-07-25T02:04:01.186Z,100.00
2022-07-25T02:06:32.079Z,100.00
2022-07-25T02:09:02.437Z,100.00
2022-07-25T02:11:32.184Z,100.00
2022-07-25T02:14:03.105Z,100.00
2022-07-25T02:16:33.978Z,100.00
2022-07-25T02:19:04.237Z,100.00
2022-07-25T02:21:36.635Z,100.00
2022-07-25T02:24:07.834Z,100.00
2022-07-25T02:26:38.799Z,100.00
2022-07-25T02:29:08.857Z,100.00
2022-07-25T02:31:38.884Z,100.00
2022-07-25T02:34:08.926Z,100.00
2022-07-25T02:36:40.648Z,100.00
2022-07-25T02:39:09.701Z,100.00
2022-07-25T02:41:39.625Z,100.00
2022-07-25T02:44:09.767Z,100.00
2022-07-25T02:46:39.168Z,100.00
2022-07-25T02:49:09.369Z,100.00
2022-07-25T02:51:41.553Z,100.00
2022-07-25T02:54:11.125Z,100.00
2022-07-25T02:56:42.074Z,100.00
2022-07-25T02:59:10.934Z,100.00
2022-07-25T03:01:40.468Z,100.00
2022-07-25T03:04:11.770Z,100.00
2022-07-25T03:06:43.358Z,100.00
2022-07-25T03:09:13.105Z,100.00
2022-07-25T03:11:43.863Z,100.00
2022-07-25T03:14:14.253Z,100.00
2022-07-25T03:16:44.294Z,100.00
2022-07-25T03:19:15.039Z,100.00
2022-07-25T03:21:46.498Z,100.00
2022-07-25T03:24:16.873Z,100.00
2022-07-25T03:26:45.832Z,100.00
2022-07-25T03:29:16.551Z,100.00
2022-07-25T03:31:46.739Z,100.00
2022-07-25T03:34:16.973Z,100.00
2022-07-25T03:36:49.883Z,100.00
2022-07-25T03:39:20.605Z,100.00
2022-07-25T03:41:49.708Z,100.00
2022-07-25T03:44:19.603Z,100.00
2022-07-25T03:46:49.275Z,100.00
2022-07-25T03:49:18.307Z,100.00
2022-07-25T03:51:50.043Z,100.00
2022-07-25T03:54:19.605Z,100.00
2022-07-25T03:56:51.232Z,100.00
2022-07-25T03:59:23.224Z,100.00
2022-07-25T04:01:53.615Z,100.00
2022-07-25T04:04:23.094Z,100.00
2022-07-25T04:06:54.641Z,100.00
2022-07-25T04:09:33.852Z,100.00
2022-07-25T04:12:05.595Z,100.00
2022-07-25T04:14:36.027Z,100.00
2022-07-25T04:17:07.046Z,100.00
2022-07-25T04:19:36.629Z,100.00
2022-07-25T04:22:08.202Z,100.00
2022-07-25T04:24:38.272Z,100.00
2022-07-25T04:27:08.897Z,100.00
2022-07-25T04:29:38.458Z,100.00
2022-07-25T04:32:10.492Z,100.00
2022-07-25T04:34:40.284Z,100.00
2022-07-25T04:37:11.108Z,100.00
2022-07-25T04:39:40.248Z,100.00
2022-07-25T04:42:11.573Z,100.00
2022-07-25T04:44:40.044Z,100.00
2022-07-25T04:47:11.225Z,100.00
2022-07-25T04:49:41.317Z,100.00
2022-07-25T04:52:12.166Z,100.00
2022-07-25T04:54:42.840Z,100.00
2022-07-25T04:57:13.377Z,100.00
2022-07-25T04:59:44.937Z,100.00
2022-07-25T05:02:15.303Z,100.00
2022-07-25T05:04:45.732Z,100.00
2022-07-25T05:07:17.167Z,100.00
2022-07-25T05:09:47.794Z,100.00
2022-07-25T05:12:20.905Z,100.00
2022-07-25T05:14:50.477Z,100.00
2022-07-25T05:17:20.601Z,100.00
2022-07-25T05:19:51.254Z,100.00
2022-07-25T05:22:26.421Z,100.00
2022-07-25T05:24:59.801Z,100.00
2022-07-25T05:27:30.067Z,100.00
2022-07-25T05:30:00.773Z,100.00
2022-07-25T05:32:31.204Z,100.00
2022-07-25T05:35:01.895Z,100.00
2022-07-25T05:37:34.568Z,100.00
2022-07-25T05:40:05.338Z,100.00
2022-07-25T05:42:35.543Z,100.00
2022-07-25T05:45:06.917Z,100.00
2022-07-25T05:47:37.678Z,100.00
2022-07-25T05:50:11.228Z,100.00
2022-07-25T05:52:41.794Z,100.00
2022-07-25T05:55:13.674Z,100.00
2022-07-25T05:57:43.258Z,100.00
2022-07-25T06:00:13.648Z,100.00
2022-07-25T06:02:42.831Z,100.00
2022-07-25T06:05:12.606Z,100.00
2022-07-25T06:07:43.612Z,100.00
2022-07-25T06:10:14.360Z,100.00
2022-07-25T06:12:44.537Z,100.00
2022-07-25T06:15:22.066Z,100.00
2022-07-25T06:17:51.636Z,100.00
2022-07-25T06:20:21.416Z,100.00
2022-07-25T06:22:51.480Z,100.00
2022-07-25T06:25:21.388Z,100.00
2022-07-25T06:27:51.508Z,100.00
2022-07-25T06:30:21.414Z,100.00
2022-07-25T06:32:50.685Z,100.00
2022-07-25T06:35:21.573Z,100.00
2022-07-25T06:37:53.142Z,100.00
2022-07-25T06:40:22.656Z,100.00
2022-07-25T06:42:53.285Z,100.00
2022-07-25T06:45:25.204Z,100.00
2022-07-25T06:47:54.854Z,100.00
2022-07-25T06:50:23.525Z,100.00
2022-07-25T06:52:55.616Z,100.00
2022-07-25T06:55:25.760Z,100.00
2022-07-25T06:57:55.354Z,100.00
2022-07-25T07:00:24.879Z,100.00
2022-07-25T07:02:58.255Z,100.00
2022-07-25T07:05:30.430Z,100.00
2022-07-25T07:08:02.660Z,100.00
2022-07-25T07:10:32.782Z,100.00
2022-07-25T07:13:08.950Z,100.00
2022-07-25T07:15:39.784Z,100.00
2022-07-25T07:18:10.226Z,100.00
2022-07-25T07:20:41.237Z,100.00
2022-07-25T07:23:12.626Z,100.00
2022-07-25T07:25:47.732Z,100.00
2022-07-25T07:28:18.664Z,100.00
2022-07-25T07:33:39.199Z,99.73
2022-07-25T07:36:10.074Z,98.78
2022-07-25T07:38:42.174Z,97.73
2022-07-25T07:41:11.324Z,96.95
2022-07-25T07:43:41.032Z,95.59
2022-07-25T07:46:10.583Z,95.69
2022-07-25T07:48:41.000Z,94.50
2022-07-25T07:51:10.183Z,92.67
2022-07-25T07:53:59.365Z,91.96
2022-07-25T07:56:28.928Z,91.07
2022-07-25T07:58:59.226Z,90.47
2022-07-25T08:01:28.970Z,89.36
2022-07-25T08:03:59.837Z,88.47
2022-07-25T08:06:30.528Z,85.77
2022-07-25T08:09:01.675Z,83.95
2022-07-25T08:11:30.816Z,83.23
2022-07-25T08:14:00.278Z,82.50
2022-07-25T08:16:31.276Z,80.46
2022-07-25T08:19:00.403Z,78.42
2022-07-25T08:21:30.704Z,77.33
2022-07-25T08:24:01.693Z,76.84
2022-07-25T08:26:34.553Z,75.63
2022-07-25T08:29:18.859Z,75.06
2022-07-25T08:31:49.049Z,74.70
2022-07-25T08:34:22.865Z,74.50
2022-07-25T08:36:52.471Z,73.07
2022-07-25T08:39:22.849Z,72.93
2022-07-25T08:41:52.792Z,72.56
2022-07-25T08:44:24.472Z,71.52
2022-07-25T08:46:54.658Z,71.77
2022-07-25T08:49:24.780Z,70.10
2022-07-25T08:51:55.148Z,71.08
2022-07-25T08:54:26.111Z,70.01
2022-07-25T08:56:55.218Z,68.68
2022-07-25T08:59:24.794Z,66.87
2022-07-25T09:01:54.613Z,66.34
2022-07-25T09:04:24.482Z,64.77
2022-07-25T09:06:53.992Z,63.28
2022-07-25T09:09:35.006Z,63.05
2022-07-25T09:12:04.100Z,61.85
2022-07-25T09:14:44.039Z,60.68
2022-07-25T09:17:21.919Z,60.65
2022-07-25T09:19:58.601Z,61.19
2022-07-25T09:22:31.045Z,59.29
2022-07-25T09:25:02.615Z,60.18
2022-07-25T09:27:36.357Z,59.26
2022-07-25T09:30:17.340Z,59.51
2022-07-25T09:32:47.150Z,58.30
2022-07-25T09:35:16.894Z,56.85
2022-07-25T09:37:47.179Z,56.73
2022-07-25T09:40:17.875Z,55.87
2022-07-25T09:42:53.168Z,56.32
2022-07-25T09:45:22.145Z,54.85
2022-07-25T09:47:58.048Z,53.85
2022-07-25T09:50:31.180Z,53.04
2022-07-25T09:53:03.667Z,53.16
2022-07-25T09:55:34.392Z,52.72
2022-07-25T09:58:03.957Z,52.24
2022-07-25T10:00:34.057Z,52.60
2022-07-25T10:03:27.036Z,52.11
2022-07-25T10:06:15.780Z,52.21
2022-07-25T10:08:46.951Z,51.51
2022-07-25T10:11:27.586Z,51.31
2022-07-25T10:13:58.702Z,51.02
2022-07-25T10:16:29.989Z,50.33
2022-07-25T10:19:00.882Z,50.72
2022-07-25T10:21:30.924Z,50.27
2022-07-25T10:24:06.945Z,50.17
2022-07-25T10:26:41.772Z,50.81
2022-07-25T10:29:13.798Z,50.40
2022-07-25T10:31:50.945Z,50.41
2022-07-25T10:34:32.418Z,50.10
2022-07-25T10:37:12.714Z,50.52
2022-07-25T10:39:45.994Z,50.71
2022-07-25T10:42:22.347Z,49.85
2022-07-25T10:44:58.066Z,49.91
2022-07-25T10:47:30.176Z,49.76
2022-07-25T10:50:22.232Z,50.51
2022-07-25T10:53:00.872Z,49.59
2022-07-25T10:55:30.487Z,49.72
2022-07-25T10:58:17.443Z,50.07
2022-07-25T11:00:47.746Z,49.69
2022-07-25T11:03:18.894Z,49.26
2022-07-25T11:05:48.787Z,49.52
2022-07-25T11:08:22.250Z,49.04
2022-07-25T11:10:54.342Z,48.65
2022-07-25T11:13:24.798Z,47.69
2022-07-25T11:15:59.888Z,48.55
2022-07-25T11:18:38.323Z,48.70
2022-07-25T11:21:10.950Z,48.94
2022-07-25T11:23:43.592Z,48.33
2022-07-25T11:26:15.442Z,48.62
2022-07-25T11:28:49.163Z,48.91
2022-07-25T11:31:24.150Z,49.01
2022-07-25T11:33:53.088Z,49.79
2022-07-25T11:36:23.011Z,49.57
2022-07-25T11:38:53.507Z,49.15
2022-07-25T11:41:32.077Z,49.66
2022-07-25T11:44:03.656Z,52.91
2022-07-25T11:46:45.068Z,54.00
2022-07-25T11:49:15.636Z,54.28
2022-07-25T11:51:46.797Z,55.06
2022-07-25T11:54:17.524Z,54.67
2022-07-25T11:56:47.907Z,51.63
2022-07-25T11:59:19.043Z,52.58
2022-07-25T12:01:48.021Z,51.04
2022-07-25T12:04:22.819Z,51.10
2022-07-25T12:06:52.733Z,50.84
2022-07-25T12:09:24.968Z,50.02
2022-07-25T12:12:06.012Z,50.61
2022-07-25T12:14:44.623Z,50.23
2022-07-25T12:17:14.465Z,50.58
2022-07-25T12:19:47.694Z,49.80
2022-07-25T12:22:17.709Z,50.86
2022-07-25T12:24:47.376Z,51.22
2022-07-25T12:27:17.438Z,51.30
2022-07-25T12:29:48.371Z,50.78
2022-07-25T12:32:19.023Z,49.24
2022-07-25T12:34:49.153Z,50.08
2022-07-25T12:37:19.933Z,49.76
2022-07-25T12:39:49.463Z,48.25
2022-07-25T12:42:20.217Z,48.28
2022-07-25T12:44:50.842Z,47.21
2022-07-25T12:47:20.830Z,48.28
2022-07-25T12:49:50.052Z,46.99
2022-07-25T12:52:19.726Z,47.68
2022-07-25T12:54:50.427Z,48.28
2022-07-25T12:57:21.506Z,48.01
2022-07-25T12:59:53.371Z,48.80
2022-07-25T13:02:22.370Z,48.21
2022-07-25T13:04:50.962Z,47.34
2022-07-25T13:07:20.328Z,47.71
2022-07-25T13:09:49.508Z,48.29
2022-07-25T13:12:20.401Z,47.83
2022-07-25T13:14:52.356Z,47.84
2022-07-25T13:17:27.262Z,47.54
2022-07-25T13:19:58.040Z,47.81
2022-07-25T13:22:28.676Z,47.30
2022-07-25T13:24:58.320Z,46.29
2022-07-25T13:27:29.094Z,45.99
2022-07-25T13:30:00.221Z,45.30
2022-07-25T13:32:32.785Z,44.92
2022-07-25T13:35:02.803Z,45.80
2022-07-25T13:37:34.030Z,44.08
2022-07-25T13:40:06.248Z,44.98
2022-07-25T13:42:35.583Z,44.67
2022-07-25T13:45:11.644Z,44.29
2022-07-25T13:47:41.810Z,44.68
2022-07-25T13:50:13.952Z,44.53
2022-07-25T13:52:44.161Z,44.17
2022-07-25T13:55:13.839Z,44.01
2022-07-25T13:57:43.034Z,42.01
2022-07-25T14:00:17.180Z,41.67
2022-07-25T14:02:47.273Z,41.21
2022-07-25T14:05:16.325Z,42.00
2022-07-25T14:07:47.035Z,41.61
2022-07-25T14:10:16.671Z,42.64
2022-07-25T14:12:46.358Z,41.86
2022-07-25T14:15:18.231Z,41.49
2022-07-25T14:17:47.780Z,41.88
2022-07-25T14:20:17.282Z,41.59
2022-07-25T14:22:46.977Z,42.04
2022-07-25T14:25:16.618Z,42.94
2022-07-25T14:27:46.874Z,43.23
2022-07-25T14:30:18.534Z,44.37
2022-07-25T14:32:48.598Z,43.55
2022-07-25T14:35:19.022Z,42.25
2022-07-25T14:37:49.383Z,41.68
2022-07-25T14:40:19.107Z,42.06
2022-07-25T14:42:49.815Z,41.27
2022-07-25T14:45:22.504Z,41.42
2022-07-25T14:47:51.575Z,41.10
2022-07-25T14:50:21.242Z,41.21
2022-07-25T14:52:51.800Z,40.80
2022-07-25T14:55:22.308Z,41.16
2022-07-25T14:57:52.491Z,41.43
2022-07-25T15:00:29.154Z,40.64
2022-07-25T15:02:58.954Z,40.54
2022-07-25T15:05:27.399Z,39.65
2022-07-25T15:07:57.441Z,39.49
2022-07-25T15:10:26.987Z,39.24
2022-07-25T15:13:20.841Z,38.66
2022-07-25T15:15:48.887Z,39.22
2022-07-25T15:18:19.449Z,38.79
2022-07-25T15:20:48.728Z,38.83
2022-07-25T15:23:21.457Z,39.10
2022-07-25T15:26:06.298Z,39.77
2022-07-25T15:28:39.752Z,39.35
2022-07-25T15:31:10.807Z,39.43
2022-07-25T15:33:40.825Z,39.08
2022-07-25T15:36:12.443Z,39.57
2022-07-25T15:38:41.700Z,38.36
2022-07-25T15:41:12.563Z,39.51
2022-07-25T15:43:42.181Z,38.81
2022-07-25T15:46:17.045Z,38.67
2022-07-25T15:48:47.068Z,39.24
2022-07-25T15:51:17.905Z,39.33
2022-07-25T15:53:48.576Z,39.78
2022-07-25T15:56:18.745Z,40.00
2022-07-25T15:58:50.391Z,40.12
2022-07-25T16:01:26.454Z,40.48
2022-07-25T16:04:00.414Z,40.87
2022-07-25T16:06:30.118Z,39.54
2022-07-25T16:09:01.454Z,39.78
2022-07-25T16:11:31.287Z,39.23
2022-07-25T16:14:00.313Z,39.46
2022-07-25T16:16:31.169Z,40.35
2022-07-25T16:19:00.508Z,41.64
2022-07-25T16:21:30.950Z,42.58
2022-07-25T16:24:00.021Z,42.66
2022-07-25T16:26:30.031Z,43.36
2022-07-25T16:28:59.984Z,43.35
2022-07-25T16:31:30.484Z,42.81
2022-07-25T16:34:00.816Z,43.01
2022-07-25T16:36:30.615Z,42.75
2022-07-25T16:39:01.762Z,43.09
2022-07-25T16:41:31.547Z,42.86
2022-07-25T16:44:03.298Z,43.11
2022-07-25T16:46:33.936Z,42.22
2022-07-25T16:49:03.867Z,42.79
2022-07-25T16:51:37.022Z,43.03
2022-07-25T16:54:08.607Z,43.22
2022-07-25T16:56:39.022Z,43.87
2022-07-25T16:59:11.222Z,43.61
2022-07-25T17:01:42.954Z,43.19
2022-07-25T17:04:13.324Z,43.85
2022-07-25T17:06:44.046Z,44.17
2022-07-25T17:09:14.303Z,43.72
2022-07-25T17:11:43.651Z,44.40
2022-07-25T17:14:14.158Z,44.24
2022-07-25T17:16:45.390Z,44.97
2022-07-25T17:19:15.464Z,45.43
2022-07-25T17:21:46.517Z,45.82
2022-07-25T17:24:16.468Z,45.99
2022-07-25T17:26:46.107Z,45.92
2022-07-25T17:29:16.650Z,46.03
2022-07-25T17:31:48.915Z,46.68
2022-07-25T17:34:18.650Z,46.93
2022-07-25T17:36:49.745Z,47.37
2022-07-25T17:39:19.548Z,47.67
2022-07-25T17:41:50.307Z,48.10
2022-07-25T17:44:19.873Z,48.32
2022-07-25T17:46:53.347Z,48.60
2022-07-25T17:49:23.375Z,48.80
2022-07-25T17:51:54.077Z,49.62
2022-07-25T17:54:24.299Z,49.68
2022-07-25T17:56:54.546Z,50.55
2022-07-25T17:59:23.650Z,50.71
2022-07-25T18:01:55.269Z,50.97
2022-07-25T18:04:24.888Z,51.30
2022-07-25T18:06:54.508Z,51.56
2022-07-25T18:09:24.246Z,52.11
2022-07-25T18:11:55.764Z,52.45
2022-07-25T18:14:25.781Z,52.83
2022-07-25T18:16:56.914Z,52.29
2022-07-25T18:19:27.666Z,52.81
2022-07-25T18:21:56.904Z,52.26
2022-07-25T18:24:29.409Z,52.20
2022-07-25T18:26:59.484Z,52.15
2022-07-25T18:29:28.849Z,52.16
2022-07-25T18:31:59.939Z,52.03
2022-07-25T18:34:31.803Z,51.92
2022-07-25T18:37:02.583Z,52.13
2022-07-25T18:39:32.192Z,51.88
2022-07-25T18:42:02.465Z,52.26
2022-07-25T18:44:32.539Z,52.43
2022-07-25T18:47:04.995Z,53.02
2022-07-25T18:49:37.439Z,53.24
2022-07-25T18:52:07.595Z,53.38
2022-07-25T18:54:38.880Z,53.65
2022-07-25T18:57:08.067Z,53.69
2022-07-25T18:59:37.588Z,54.09
2022-07-25T19:02:09.356Z,53.82
2022-07-25T19:04:39.092Z,54.31
2022-07-25T19:07:09.333Z,54.40
2022-07-25T19:09:38.156Z,54.90
2022-07-25T19:12:11.049Z,55.04
2022-07-25T19:14:41.188Z,54.77
2022-07-25T19:17:13.140Z,55.44
2022-07-25T19:19:42.714Z,55.46
2022-07-25T19:22:12.838Z,55.61
2022-07-25T19:24:41.372Z,55.59
2022-07-25T19:27:11.181Z,56.24
2022-07-25T19:29:40.090Z,56.10
2022-07-25T19:32:11.880Z,56.37
2022-07-25T19:34:42.680Z,56.51
2022-07-25T19:37:12.295Z,56.79
2022-07-25T19:39:41.898Z,56.75
2022-07-25T19:42:12.855Z,56.89
2022-07-25T19:44:43.239Z,57.46
2022-07-25T19:47:14.108Z,58.03
2022-07-25T19:49:43.115Z,58.22
2022-07-25T19:52:12.785Z,58.58
2022-07-25T19:54:42.056Z,59.28
2022-07-25T19:57:12.873Z,59.43
2022-07-25T19:59:41.913Z,60.65
2022-07-25T20:02:11.990Z,60.97
2022-07-25T20:04:42.678Z,61.63
2022-07-25T20:07:12.235Z,62.00
2022-07-25T20:09:42.905Z,61.92
2022-07-25T20:12:12.637Z,62.39
2022-07-25T20:14:41.707Z,62.55
2022-07-25T20:17:11.737Z,63.13
2022-07-25T20:19:43.168Z,63.19
2022-07-25T20:22:13.583Z,63.63
2022-07-25T20:24:43.602Z,63.42
2022-07-25T20:27:13.847Z,64.35
2022-07-25T20:29:42.903Z,64.05
2022-07-25T20:32:13.930Z,64.42
2022-07-25T20:34:45.914Z,64.92
2022-07-25T20:37:15.308Z,65.65
2022-07-25T20:39:44.767Z,65.75
2022-07-25T20:42:18.925Z,65.73
2022-07-25T20:44:48.945Z,66.44
2022-07-25T20:47:17.689Z,67.67
2022-07-25T20:49:47.888Z,67.89
2022-07-25T20:52:17.293Z,69.01
2022-07-25T20:54:46.741Z,69.85
2022-07-25T20:57:16.871Z,69.99
2022-07-25T20:59:46.941Z,70.77
2022-07-25T21:02:17.387Z,71.34
2022-07-25T21:04:49.185Z,72.05
2022-07-25T21:07:19.211Z,72.47
2022-07-25T21:09:49.129Z,72.58
2022-07-25T21:12:17.997Z,73.10
2022-07-25T21:14:48.187Z,73.63
2022-07-25T21:17:17.716Z,74.00
2022-07-25T21:19:49.875Z,74.76
2022-07-25T21:22:20.684Z,75.01
2022-07-25T21:24:50.462Z,75.29
2022-07-25T21:27:19.768Z,75.49
2022-07-25T21:29:48.657Z,75.86
2022-07-25T21:32:18.443Z,76.12
2022-07-25T21:34:50.906Z,76.32
2022-07-25T21:37:20.845Z,76.67
2022-07-25T21:39:51.436Z,76.81
2022-07-25T21:42:21.393Z,77.54
2022-07-25T21:44:51.074Z,77.16
2022-07-25T21:47:21.203Z,77.50
2022-07-25T21:50:09.829Z,78.39
2022-07-25T21:52:43.542Z,79.15
2022-07-25T21:55:14.136Z,78.86
2022-07-25T21:57:44.221Z,78.96
2022-07-25T22:00:18.356Z,79.50
2022-07-25T22:02:49.700Z,79.97
2022-07-25T22:05:21.799Z,79.63
2022-07-25T22:07:52.969Z,79.46
2022-07-25T22:10:23.290Z,79.78
2022-07-25T22:12:54.988Z,79.58
2022-07-25T22:15:24.043Z,79.64
2022-07-25T22:17:55.177Z,79.58
2022-07-25T22:20:27.480Z,79.79
2022-07-25T22:22:58.156Z,79.99
2022-07-25T22:25:27.391Z,79.83
2022-07-25T22:27:56.288Z,80.17
2022-07-25T22:30:26.769Z,79.87
2022-07-25T22:32:57.372Z,80.21
2022-07-25T22:35:28.098Z,81.07
2022-07-25T22:37:58.668Z,81.71
2022-07-25T22:40:28.714Z,81.95
2022-07-25T22:42:58.060Z,82.09
2022-07-25T22:45:28.219Z,82.35
2022-07-25T22:47:58.100Z,82.95
2022-07-25T22:50:28.932Z,83.15
2022-07-25T22:52:58.174Z,83.20
2022-07-25T22:55:27.159Z,83.72
2022-07-25T22:57:55.603Z,83.64
2022-07-25T23:00:24.076Z,84.00
2022-07-25T23:02:52.592Z,84.58
2022-07-25T23:05:21.122Z,85.11
2022-07-25T23:07:50.955Z,85.45
2022-07-25T23:10:19.371Z,85.97
2022-07-25T23:12:47.935Z,86.16
2022-07-25T23:15:16.463Z,85.84
2022-07-25T23:17:44.985Z,86.37
2022-07-25T23:20:13.875Z,86.45
2022-07-25T23:22:42.379Z,86.66
2022-07-25T23:25:15.366Z,87.40
2022-07-25T23:27:46.829Z,87.33
2022-07-25T23:30:16.569Z,87.41
2022-07-25T23:32:45.648Z,88.35
2022-07-25T23:35:14.396Z,87.43
2022-07-25T23:37:43.218Z,87.68
2022-07-25T23:40:14.888Z,87.93
2022-07-25T23:42:43.929Z,88.24
2022-07-25T23:45:12.825Z,88.80
2022-07-25T23:47:41.622Z,90.11
2022-07-25T23:50:12.625Z,90.58
2022-07-25T23:52:41.120Z,91.03
2022-07-25T23:55:11.185Z,90.94
2022-07-25T23:57:41.080Z,91.10
